createdAt,value
2017-11-07T00:02:04.050Z,11.53
2017-11-07T00:04:30.232Z,12.00
2017-11-07T00:06:56.428Z,11.87
2017-11-07T00:09:22.671Z,11.87
2017-11-07T00:11:49.662Z,12.00
2017-11-07T00:14:15.911Z,12.13
2017-11-07T00:16:42.207Z,12.03
2017-11-07T00:19:09.192Z,12.73
2017-11-07T00:21:35.460Z,11.07
2017-11-07T00:24:01.719Z,13.23
2017-11-07T00:26:28.679Z,13.07
2017-11-07T00:28:54.926Z,12.20
2017-11-07T00:31:21.125Z,12.37
2017-11-07T00:33:48.063Z,13.47
2017-11-07T00:36:15.009Z,12.90
2017-11-07T00:38:41.953Z,13.00
2017-11-07T00:41:08.925Z,13.57
2017-11-07T00:43:35.164Z,13.67
2017-11-07T00:46:01.411Z,13.67
2017-11-07T00:48:27.648Z,13.53
2017-11-07T00:50:53.874Z,13.10
2017-11-07T00:53:20.139Z,14.03
2017-11-07T00:55:47.089Z,11.53
2017-11-07T00:58:13.421Z,13.97
2017-11-07T01:00:39.691Z,13.53
2017-11-07T01:03:06.664Z,13.70
2017-11-07T01:05:32.835Z,12.60
2017-11-07T01:07:59.078Z,13.13
2017-11-07T01:10:25.370Z,14.10
2017-11-07T01:12:51.646Z,12.60
2017-11-07T01:15:17.916Z,13.80
2017-11-07T01:17:44.162Z,13.50
2017-11-07T01:20:10.414Z,14.10
2017-11-07T01:22:36.943Z,15.00
2017-11-07T01:25:03.149Z,12.97
2017-11-07T01:27:29.397Z,14.40
2017-11-07T01:29:55.653Z,13.60
2017-11-07T01:32:21.827Z,13.83
2017-11-07T01:34:48.117Z,13.47
2017-11-07T01:37:15.119Z,13.80
2017-11-07T01:39:41.386Z,13.90
2017-11-07T01:42:07.651Z,13.90
2017-11-07T01:44:33.912Z,13.67
2017-11-07T01:47:00.124Z,13.50
2017-11-07T01:49:26.349Z,14.03
2017-11-07T01:51:52.682Z,12.53
2017-11-07T01:54:18.940Z,13.27
2017-11-07T01:56:45.101Z,12.27
2017-11-07T01:59:12.175Z,12.63
2017-11-07T02:01:38.488Z,11.87
2017-11-07T02:04:05.464Z,12.53
2017-11-07T02:06:31.711Z,12.03
2017-11-07T02:08:57.948Z,10.87
2017-11-07T02:11:24.152Z,10.80
2017-11-07T02:13:50.456Z,11.00
2017-11-07T02:16:16.732Z,10.80
2017-11-07T02:18:42.955Z,11.43
2017-11-07T02:21:09.193Z,10.00
2017-11-07T02:23:35.496Z,10.90
2017-11-07T02:26:01.762Z,10.47
2017-11-07T02:28:28.096Z,10.50
2017-11-07T02:30:55.116Z,10.50
2017-11-07T02:33:21.340Z,9.50
2017-11-07T02:35:47.658Z,10.50
2017-11-07T02:38:13.916Z,10.60
2017-11-07T02:40:40.107Z,10.10
2017-11-07T02:43:06.396Z,10.17
2017-11-07T02:45:33.364Z,9.43
2017-11-07T02:48:00.411Z,8.90
2017-11-07T02:50:27.384Z,8.77
2017-11-07T02:52:53.700Z,8.90
2017-11-07T02:55:19.918Z,8.90
2017-11-07T02:57:46.187Z,9.43
2017-11-07T03:00:12.430Z,10.23
2017-11-07T03:02:38.704Z,9.03
2017-11-07T03:05:05.653Z,8.97
2017-11-07T03:07:32.532Z,8.77
2017-11-07T03:09:58.804Z,10.03
2017-11-07T03:12:25.005Z,8.93
2017-11-07T03:14:51.954Z,8.87
2017-11-07T03:17:18.163Z,7.50
2017-11-07T03:19:44.411Z,7.50
2017-11-07T03:22:10.674Z,8.40
2017-11-07T03:24:37.678Z,7.60
2017-11-07T03:27:03.899Z,6.87
2017-11-07T03:29:30.190Z,7.13
2017-11-07T03:31:57.170Z,8.03
2017-11-07T03:34:23.413Z,6.80
2017-11-07T03:36:49.699Z,8.20
2017-11-07T03:39:15.970Z,7.27
2017-11-07T03:41:42.231Z,6.97
2017-11-07T03:44:09.168Z,6.90
2017-11-07T03:46:36.094Z,7.20
2017-11-07T03:49:02.774Z,7.70
2017-11-07T03:51:29.736Z,7.20
2017-11-07T03:53:55.974Z,7.00
2017-11-07T03:56:22.210Z,6.83
2017-11-07T03:58:48.431Z,7.17
2017-11-07T04:01:14.694Z,6.60
2017-11-07T04:03:40.942Z,7.00
2017-11-07T04:06:07.923Z,6.47
2017-11-07T04:08:34.228Z,6.60
2017-11-07T04:11:00.479Z,6.97
2017-11-07T04:13:27.440Z,6.73
2017-11-07T04:15:53.734Z,6.40
2017-11-07T04:18:20.812Z,6.43
2017-11-07T04:20:46.993Z,7.10
2017-11-07T04:23:13.217Z,6.27
2017-11-07T04:25:39.459Z,7.10
2017-11-07T04:28:06.451Z,7.30
2017-11-07T04:30:32.736Z,6.80
2017-11-07T04:32:58.929Z,7.00
2017-11-07T04:35:25.160Z,6.53
2017-11-07T04:37:51.406Z,6.33
2017-11-07T04:40:17.620Z,6.77
2017-11-07T04:42:43.903Z,5.83
2017-11-07T04:45:10.155Z,6.73
2017-11-07T04:47:36.356Z,6.80
2017-11-07T04:50:03.394Z,6.87
2017-11-07T04:52:30.332Z,6.27
2017-11-07T04:54:56.516Z,5.93
2017-11-07T04:57:22.817Z,6.07
2017-11-07T04:59:49.058Z,5.97
2017-11-07T05:02:15.284Z,5.47
2017-11-07T05:04:41.537Z,6.63
2017-11-07T05:07:07.808Z,6.00
2017-11-07T05:09:34.785Z,6.60
2017-11-07T05:12:01.025Z,6.00
2017-11-07T05:14:27.236Z,6.40
2017-11-07T05:16:53.460Z,5.73
2017-11-07T05:19:19.685Z,7.30
2017-11-07T05:21:45.876Z,5.90
2017-11-07T05:24:12.143Z,6.40
2017-11-07T05:26:38.380Z,5.47
2017-11-07T05:29:04.587Z,6.40
2017-11-07T05:31:31.584Z,5.30
2017-11-07T05:33:57.780Z,6.17
2017-11-07T05:36:23.991Z,6.30
2017-11-07T05:38:50.982Z,5.63
2017-11-07T05:41:17.190Z,6.20
2017-11-07T05:43:43.397Z,6.90
2017-11-07T05:46:10.349Z,6.27
2017-11-07T05:48:37.350Z,6.50
2017-11-07T05:51:03.641Z,7.10
2017-11-07T05:53:29.894Z,6.40
2017-11-07T05:55:56.176Z,6.80
2017-11-07T05:58:23.120Z,6.13
2017-11-07T06:00:50.139Z,6.70
2017-11-07T06:03:16.408Z,6.40
2017-11-07T06:05:42.645Z,6.43
2017-11-07T06:08:08.827Z,5.83
2017-11-07T06:10:36.804Z,5.83
2017-11-07T06:13:03.043Z,6.77
2017-11-07T06:15:30.001Z,7.17
2017-11-07T06:17:56.987Z,7.40
2017-11-07T06:20:23.239Z,5.80
2017-11-07T06:22:49.468Z,6.60
2017-11-07T06:25:15.731Z,6.60
2017-11-07T06:27:42.724Z,6.27
2017-11-07T06:30:09.011Z,6.00
2017-11-07T06:32:35.236Z,6.33
2017-11-07T06:35:02.227Z,6.40
2017-11-07T06:37:28.461Z,5.80
2017-11-07T06:39:54.684Z,5.70
2017-11-07T06:42:20.958Z,5.70
2017-11-07T06:44:47.962Z,6.23
2017-11-07T06:47:14.186Z,6.30
2017-11-07T06:49:40.408Z,7.23
2017-11-07T06:52:06.628Z,6.47
2017-11-07T06:54:32.882Z,6.57
2017-11-07T06:56:59.881Z,6.17
2017-11-07T06:59:26.132Z,6.73
2017-11-07T07:01:52.387Z,6.20
2017-11-07T07:04:18.636Z,6.07
2017-11-07T07:06:44.887Z,6.70
2017-11-07T07:09:11.923Z,6.80
2017-11-07T07:11:38.938Z,6.30
2017-11-07T07:14:05.120Z,7.43
2017-11-07T07:16:31.380Z,7.20
2017-11-07T07:18:57.615Z,7.07
2017-11-07T07:21:23.855Z,7.50
2017-11-07T07:23:50.805Z,7.13
2017-11-07T07:26:17.082Z,8.20
2017-11-07T07:28:43.292Z,7.53
2017-11-07T07:31:10.254Z,7.87
2017-11-07T07:33:36.448Z,7.87
2017-11-07T07:36:03.414Z,7.93
2017-11-07T07:38:30.440Z,8.30
2017-11-07T07:40:57.405Z,7.50
2017-11-07T07:43:24.403Z,7.70
2017-11-07T07:45:50.665Z,8.03
2017-11-07T07:48:16.932Z,8.70
2017-11-07T07:50:43.119Z,7.90
2017-11-07T07:53:09.295Z,7.70
2017-11-07T07:55:35.535Z,8.07
2017-11-07T07:58:01.800Z,8.80
2017-11-07T08:00:28.086Z,9.17
2017-11-07T08:02:54.370Z,10.00
2017-11-07T08:05:22.220Z,9.90
2017-11-07T08:07:48.491Z,9.90
2017-11-07T08:10:14.834Z,10.63
2017-11-07T08:12:41.086Z,10.30
2017-11-07T08:15:07.386Z,10.70
2017-11-07T08:17:33.670Z,10.37
2017-11-07T08:20:00.708Z,10.30
2017-11-07T08:22:26.947Z,10.00
2017-11-07T08:24:53.950Z,10.37
2017-11-07T08:27:20.164Z,11.23
2017-11-07T08:29:46.396Z,10.07
2017-11-07T08:32:12.646Z,11.93
2017-11-07T08:34:38.914Z,11.27
2017-11-07T08:37:05.156Z,10.40
2017-11-07T08:39:32.157Z,10.70
2017-11-07T08:42:05.391Z,10.90
2017-11-07T08:44:32.401Z,11.20
2017-11-07T08:46:58.756Z,10.47
2017-11-07T08:49:25.675Z,11.20
2017-11-07T08:51:51.871Z,10.70
2017-11-07T08:54:18.129Z,11.47
2017-11-07T08:56:44.592Z,11.40
2017-11-07T08:59:11.543Z,12.00
2017-11-07T09:01:37.794Z,9.83
2017-11-07T09:04:04.024Z,10.83
2017-11-07T09:06:31.027Z,11.30
2017-11-07T09:08:58.002Z,11.00
2017-11-07T09:11:24.200Z,10.67
2017-11-07T09:13:50.460Z,11.57
2017-11-07T09:16:17.496Z,10.97
2017-11-07T09:18:43.799Z,11.70
2017-11-07T09:21:10.094Z,11.40
2017-11-07T09:23:36.354Z,11.93
2017-11-07T09:26:02.659Z,11.37
2017-11-07T09:28:28.964Z,10.93
2017-11-07T09:30:55.972Z,11.90
2017-11-07T09:33:22.236Z,11.73
2017-11-07T09:35:49.320Z,12.90
2017-11-07T09:38:15.561Z,12.80
2017-11-07T09:40:41.741Z,12.10
2017-11-07T09:43:08.697Z,13.63
2017-11-07T09:45:35.649Z,11.60
2017-11-07T09:48:02.618Z,12.90
2017-11-07T09:50:28.883Z,13.03
2017-11-07T09:52:55.106Z,12.80
2017-11-07T09:55:21.368Z,12.47
2017-11-07T09:57:48.387Z,12.23
2017-11-07T10:00:14.639Z,15.00
2017-11-07T10:02:41.680Z,14.77
2017-11-07T10:05:08.673Z,12.20
2017-11-07T10:07:34.879Z,14.27
2017-11-07T10:10:01.093Z,14.13
2017-11-07T10:12:28.017Z,12.40
2017-11-07T10:14:54.221Z,13.57
2017-11-07T10:17:20.482Z,13.70
2017-11-07T10:19:47.489Z,14.70
2017-11-07T10:22:13.711Z,13.30
2017-11-07T10:24:39.955Z,14.10
2017-11-07T10:27:06.168Z,15.20
2017-11-07T10:29:32.451Z,14.90
2017-11-07T10:31:59.424Z,13.70
2017-11-07T10:34:26.005Z,14.37
2017-11-07T10:36:52.248Z,15.57
2017-11-07T10:39:18.524Z,16.37
2017-11-07T10:41:44.800Z,14.80
2017-11-07T10:44:10.967Z,16.53
2017-11-07T10:46:37.215Z,16.40
2017-11-07T10:49:03.468Z,16.37
2017-11-07T10:51:29.713Z,15.00
2017-11-07T10:53:56.008Z,14.83
2017-11-07T10:56:22.282Z,16.13
2017-11-07T10:58:48.519Z,16.30
2017-11-07T11:01:15.481Z,14.63
2017-11-07T11:03:42.468Z,15.70
2017-11-07T11:06:08.655Z,15.57
2017-11-07T11:08:35.601Z,18.30
2017-11-07T11:11:02.616Z,17.73
2017-11-07T11:13:29.574Z,16.37
2017-11-07T11:15:56.507Z,15.90
2017-11-07T11:18:22.750Z,16.27
2017-11-07T11:20:49.728Z,17.03
2017-11-07T11:23:15.941Z,15.70
2017-11-07T11:25:42.907Z,15.10
2017-11-07T11:28:09.076Z,13.63
2017-11-07T11:30:35.346Z,16.23
2017-11-07T11:33:01.592Z,15.60
2017-11-07T11:35:27.799Z,16.67
2017-11-07T11:37:54.735Z,16.20
2017-11-07T11:40:21.724Z,17.80
2017-11-07T11:42:47.975Z,17.57
2017-11-07T11:45:14.248Z,17.10
2017-11-07T11:47:40.526Z,16.30
2017-11-07T11:50:06.802Z,17.43
2017-11-07T11:52:33.767Z,15.87
2017-11-07T11:55:00.028Z,16.70
2017-11-07T11:57:26.288Z,17.53
2017-11-07T11:59:52.535Z,17.53
2017-11-07T12:02:19.600Z,16.40
2017-11-07T12:04:45.920Z,15.87
2017-11-07T12:07:12.956Z,16.80
2017-11-07T12:09:40.005Z,15.80
2017-11-07T12:12:06.979Z,15.70
2017-11-07T12:14:33.276Z,15.73
2017-11-07T12:17:00.232Z,14.53
2017-11-07T12:19:27.171Z,15.83
2017-11-07T12:21:54.871Z,16.00
2017-11-07T12:24:21.111Z,15.03
2017-11-07T12:26:47.375Z,18.10
2017-11-07T12:29:13.710Z,16.27
2017-11-07T12:31:40.722Z,17.63
2017-11-07T12:34:07.024Z,17.13
2017-11-07T12:36:33.278Z,15.60
2017-11-07T12:39:00.540Z,16.90
2017-11-07T12:41:26.757Z,16.17
2017-11-07T12:43:54.120Z,17.17
2017-11-07T12:46:20.397Z,17.47
2017-11-07T12:48:47.365Z,16.50
2017-11-07T12:51:26.328Z,17.83
2017-11-07T12:53:52.789Z,17.10
2017-11-07T12:56:19.084Z,16.53
2017-11-07T12:58:45.397Z,18.13
2017-11-07T13:01:11.620Z,17.43
2017-11-07T13:03:37.837Z,18.37
2017-11-07T13:06:04.137Z,15.90
2017-11-07T13:08:31.162Z,18.03
2017-11-07T13:10:57.408Z,18.20
2017-11-07T13:13:23.677Z,19.83
2017-11-07T13:15:49.945Z,18.37
2017-11-07T13:18:16.131Z,18.47
2017-11-07T13:20:42.329Z,18.23
2017-11-07T13:23:08.569Z,17.97
2017-11-07T13:25:35.500Z,17.10
2017-11-07T13:28:01.684Z,18.13
2017-11-07T13:30:27.915Z,18.17
2017-11-07T13:32:54.148Z,18.70
2017-11-07T13:35:20.390Z,19.13
2017-11-07T13:37:46.661Z,19.97
2017-11-07T13:40:13.642Z,20.53
2017-11-07T13:42:39.896Z,20.53
2017-11-07T13:45:06.092Z,18.90
2017-11-07T13:47:32.328Z,20.10
2017-11-07T13:49:58.497Z,20.83
2017-11-07T13:52:24.774Z,19.57
2017-11-07T13:54:51.039Z,20.10
2017-11-07T13:57:18.031Z,22.90
2017-11-07T13:59:44.264Z,19.93
2017-11-07T14:02:10.493Z,19.47
2017-11-07T14:04:36.714Z,19.93
2017-11-07T14:07:02.941Z,19.53
2017-11-07T14:09:29.918Z,19.77
2017-11-07T14:11:56.147Z,20.00
2017-11-07T14:14:22.409Z,21.00
2017-11-07T14:16:48.628Z,19.00
2017-11-07T14:19:15.718Z,20.23
2017-11-07T14:21:41.986Z,20.00
2017-11-07T14:24:08.210Z,22.20
2017-11-07T14:26:34.423Z,21.97
2017-11-07T14:29:00.616Z,20.50
2017-11-07T14:31:27.545Z,20.67
2017-11-07T14:33:54.539Z,19.70
2017-11-07T14:36:20.732Z,20.37
2017-11-07T14:38:46.991Z,20.67
2017-11-07T14:41:13.217Z,20.60
2017-11-07T14:43:39.489Z,21.30
2017-11-07T14:46:05.675Z,24.23
2017-11-07T14:48:31.865Z,20.67
2017-11-07T14:50:58.183Z,20.43
2017-11-07T14:53:25.163Z,20.07
2017-11-07T14:55:52.142Z,19.23
2017-11-07T14:58:18.435Z,19.87
2017-11-07T15:00:45.392Z,19.10
2017-11-07T15:03:12.350Z,19.10
2017-11-07T15:05:38.663Z,18.93
2017-11-07T15:08:05.681Z,20.60
2017-11-07T15:10:31.935Z,20.30
2017-11-07T15:12:58.834Z,25.60
2017-11-07T15:15:25.060Z,23.60
2017-11-07T15:17:51.307Z,23.40
2017-11-07T15:20:17.598Z,20.93
2017-11-07T15:22:43.920Z,19.43
2017-11-07T15:25:10.129Z,21.20
2017-11-07T15:27:37.073Z,20.63
2017-11-07T15:30:04.036Z,19.50
2017-11-07T15:32:30.195Z,20.20
2017-11-07T15:34:56.475Z,21.70
2017-11-07T15:37:23.452Z,21.07
2017-11-07T15:39:49.678Z,20.47
2017-11-07T15:42:15.938Z,21.07
2017-11-07T15:44:42.167Z,21.37
2017-11-07T15:47:08.452Z,22.50
2017-11-07T15:49:34.657Z,20.97
2017-11-07T15:52:01.647Z,21.40
2017-11-07T15:54:27.931Z,20.50
2017-11-07T15:56:54.916Z,20.73
2017-11-07T15:59:21.123Z,22.20
2017-11-07T16:01:48.078Z,22.87
2017-11-07T16:04:14.291Z,21.80
2017-11-07T16:06:41.293Z,22.50
2017-11-07T16:09:07.574Z,21.47
2017-11-07T16:11:33.840Z,24.90
2017-11-07T16:14:00.099Z,23.30
2017-11-07T16:16:26.309Z,22.93
2017-11-07T16:18:52.535Z,23.90
2017-11-07T16:21:18.886Z,23.00
2017-11-07T16:23:45.903Z,23.27
2017-11-07T16:26:12.204Z,23.60
2017-11-07T16:28:38.414Z,23.33
2017-11-07T16:31:05.388Z,23.70
2017-11-07T16:33:31.612Z,23.67
2017-11-07T16:35:57.820Z,22.97
2017-11-07T16:38:24.810Z,24.40
2017-11-07T16:40:51.106Z,22.70
2017-11-07T16:43:17.362Z,23.70
2017-11-07T16:45:43.644Z,24.50
2017-11-07T16:48:10.569Z,25.50
2017-11-07T16:50:36.786Z,23.60
2017-11-07T16:53:03.047Z,25.93
2017-11-07T16:55:29.988Z,25.10
2017-11-07T16:57:56.974Z,23.20
2017-11-07T17:00:23.223Z,23.73
2017-11-07T17:02:49.477Z,23.27
2017-11-07T17:05:15.803Z,24.77
2017-11-07T17:07:42.485Z,24.17
2017-11-07T17:10:08.789Z,23.77
2017-11-07T17:12:35.008Z,23.80
2017-11-07T17:15:01.299Z,24.83
2017-11-07T17:17:27.568Z,23.90
2017-11-07T17:19:53.820Z,24.23
2017-11-07T17:22:20.854Z,23.10
2017-11-07T17:24:47.873Z,25.47
2017-11-07T17:27:14.068Z,26.97
2017-11-07T17:29:40.279Z,24.50
2017-11-07T17:32:06.460Z,24.63
2017-11-07T17:34:32.661Z,25.00
2017-11-07T17:36:58.879Z,24.60
2017-11-07T17:39:25.136Z,24.90
2017-11-07T17:41:51.391Z,24.53
2017-11-07T17:44:18.676Z,22.33
2017-11-07T17:46:44.947Z,23.30
2017-11-07T17:49:11.116Z,22.60
2017-11-07T17:51:38.310Z,24.77
2017-11-07T17:54:04.517Z,24.53
2017-11-07T17:56:30.798Z,23.53
2017-11-07T17:58:57.424Z,23.23
2017-11-07T18:01:23.667Z,24.03
2017-11-07T18:03:49.887Z,24.27
2017-11-07T18:06:16.104Z,24.20
2017-11-07T18:08:42.398Z,23.60
2017-11-07T18:11:08.640Z,24.63
2017-11-07T18:13:34.849Z,25.43
2017-11-07T18:16:01.060Z,25.50
2017-11-07T18:18:28.015Z,27.27
2017-11-07T18:20:55.024Z,25.13
2017-11-07T18:23:22.018Z,24.73
2017-11-07T18:25:48.286Z,25.07
2017-11-07T18:28:14.556Z,26.90
2017-11-07T18:30:41.550Z,25.40
2017-11-07T18:33:07.819Z,25.93
2017-11-07T18:35:34.825Z,24.33
2017-11-07T18:38:01.081Z,23.47
2017-11-07T18:40:28.123Z,23.93
2017-11-07T18:42:55.109Z,26.33
2017-11-07T18:45:22.054Z,25.30
2017-11-07T18:47:49.015Z,25.23
2017-11-07T18:50:15.335Z,24.97
2017-11-07T18:52:41.920Z,24.27
2017-11-07T18:55:08.120Z,24.50
2017-11-07T18:57:34.416Z,25.73
2017-11-07T19:00:01.399Z,24.00
2017-11-07T19:02:27.678Z,25.77
2017-11-07T19:04:54.016Z,26.57
2017-11-07T19:07:21.030Z,30.67
2017-11-07T19:09:47.287Z,28.17
2017-11-07T19:12:13.470Z,26.80
2017-11-07T19:14:39.677Z,25.60
2017-11-07T19:17:06.002Z,27.93
2017-11-07T19:19:32.225Z,26.20
2017-11-07T19:21:59.303Z,24.37
2017-11-07T19:24:25.662Z,28.00
2017-11-07T19:26:51.896Z,26.33
2017-11-07T19:29:18.180Z,26.40
2017-11-07T19:31:44.428Z,26.43
2017-11-07T19:34:10.711Z,27.70
2017-11-07T19:36:37.781Z,25.37
2017-11-07T19:39:10.949Z,26.83
2017-11-07T19:41:37.955Z,26.10
2017-11-07T19:44:04.225Z,25.80
2017-11-07T19:46:31.264Z,26.70
2017-11-07T19:48:58.304Z,25.53
2017-11-07T19:51:24.552Z,26.00
2017-11-07T19:53:51.607Z,26.17
2017-11-07T19:56:17.853Z,27.87
2017-11-07T19:58:44.108Z,25.60
2017-11-07T20:01:10.411Z,25.20
2017-11-07T20:03:36.633Z,27.50
2017-11-07T20:06:02.960Z,29.20
2017-11-07T20:08:29.231Z,27.10
2017-11-07T20:10:55.458Z,26.80
2017-11-07T20:13:21.705Z,25.33
2017-11-07T20:15:47.934Z,26.47
2017-11-07T20:18:14.137Z,26.70
2017-11-07T20:20:40.362Z,27.13
2017-11-07T20:23:06.603Z,25.37
2017-11-07T20:25:32.808Z,25.33
2017-11-07T20:27:59.076Z,26.90
2017-11-07T20:30:25.340Z,27.40
2017-11-07T20:32:52.270Z,26.90
2017-11-07T20:35:19.260Z,25.70
2017-11-07T20:37:45.557Z,23.93
2017-11-07T20:40:12.540Z,24.63
2017-11-07T20:42:38.974Z,25.13
2017-11-07T20:45:05.325Z,25.13
2017-11-07T20:47:31.578Z,25.60
2017-11-07T20:49:57.816Z,27.30
2017-11-07T20:52:24.793Z,25.63
2017-11-07T20:54:51.082Z,27.63
2017-11-07T20:57:18.058Z,24.20
2017-11-07T20:59:45.003Z,25.23
2017-11-07T21:02:11.321Z,26.40
2017-11-07T21:04:38.310Z,27.00
2017-11-07T21:07:07.281Z,24.30
2017-11-07T21:09:34.190Z,25.60
2017-11-07T21:12:01.112Z,24.67
2017-11-07T21:14:28.702Z,25.60
2017-11-07T21:16:55.672Z,27.77
2017-11-07T21:19:22.539Z,29.60
2017-11-07T21:21:50.965Z,27.03
2017-11-07T21:24:17.212Z,30.03
2017-11-07T21:26:44.166Z,30.00
2017-11-07T21:29:11.989Z,30.20
2017-11-07T21:31:38.250Z,35.00
2017-11-07T21:34:05.450Z,30.70
2017-11-07T21:36:31.673Z,28.53
2017-11-07T21:38:57.927Z,30.00
2017-11-07T21:41:24.156Z,26.73
2017-11-07T21:43:51.170Z,29.13
2017-11-07T21:46:17.444Z,29.50
2017-11-07T21:48:43.710Z,42.93
2017-11-07T21:53:52.466Z,37.97
2017-11-07T21:56:19.200Z,34.93
2017-11-07T21:58:45.693Z,35.60
2017-11-07T22:01:13.336Z,38.40
2017-11-07T22:03:40.966Z,37.20
2017-11-07T22:06:19.193Z,38.50
2017-11-07T22:08:45.576Z,33.73
2017-11-07T22:11:13.148Z,32.40
2017-11-07T22:13:39.360Z,27.50
2017-11-07T22:16:06.598Z,27.10
2017-11-07T22:18:34.141Z,24.37
2017-11-07T22:21:00.369Z,24.50
2017-11-07T22:23:26.626Z,25.33
2017-11-07T22:25:53.603Z,24.00
2017-11-07T22:28:49.316Z,25.50
2017-11-07T22:31:15.577Z,23.67
2017-11-07T22:33:43.274Z,22.77
2017-11-07T22:36:09.546Z,22.73
2017-11-07T22:38:38.660Z,22.27
2017-11-07T22:41:05.877Z,23.27
2017-11-07T22:43:32.087Z,21.30
2017-11-07T22:45:59.706Z,21.73
2017-11-07T22:48:25.986Z,22.47
2017-11-07T22:50:52.151Z,23.43
2017-11-07T22:53:18.418Z,23.70
2017-11-07T22:55:45.673Z,21.80
2017-11-07T22:58:11.915Z,22.17
2017-11-07T23:00:38.939Z,22.13
2017-11-07T23:03:05.439Z,23.13
2017-11-07T23:05:31.672Z,22.03
2017-11-07T23:07:57.902Z,22.40
2017-11-07T23:10:24.170Z,21.77
2017-11-07T23:12:50.411Z,21.53
2017-11-07T23:15:19.655Z,21.90
2017-11-07T23:17:46.208Z,21.60
2017-11-07T23:20:12.383Z,23.80
2017-11-07T23:22:38.640Z,22.93
2017-11-07T23:25:04.922Z,23.97
2017-11-07T23:27:31.957Z,25.10
2017-11-07T23:29:58.158Z,26.10
2017-11-07T23:32:24.407Z,28.10
2017-11-07T23:34:51.552Z,26.70
2017-11-07T23:37:18.407Z,27.17
2017-11-07T23:39:46.590Z,27.77
2017-11-07T23:42:12.772Z,27.30
2017-11-07T23:44:41.189Z,28.30
2017-11-07T23:47:08.382Z,28.50
2017-11-07T23:49:35.620Z,27.40
2017-11-07T23:52:02.576Z,31.40
2017-11-07T23:54:28.840Z,30.17
2017-11-07T23:56:56.142Z,31.77
2017-11-07T23:59:23.104Z,29.50
